Time;durP1;ratioP1;P1;durP2;ratioP2;P2;SDS_P1;SDS_P2;PMS_P1;PMS_P2;Temp;Humidity;BMP_temperature;BMP_pressure;BME280_temperature;BME280_humidity;BME280_pressure;Samples;Min_cycle;Max_cycle;Signal;HPM_P1;HPM_P2
2022/02/14 00:00:09;;;;;;;;;;;;;;;0.57;81.98;100394.25;5094300;28;20448;-64
2022/02/14 00:02:35;;;;;;;;;;;;;;;0.59;81.59;100396.78;5095697;28;20011;-63
2022/02/14 00:05:03;;;;;;;;;;;;;;;0.60;82.12;100388.81;5094494;28;19955;-64
2022/02/14 00:07:29;;;;;;;;;;;;;;;0.60;81.62;100383.59;5093502;28;19916;-65
2022/02/14 00:09:54;;;;;;;;;;;;;;;0.60;81.79;100394.06;5093319;28;20375;-65
2022/02/14 00:12:20;;;;;;;;;;;;;;;0.61;81.80;100372.16;5093376;28;19920;-68
2022/02/14 00:14:45;;;;;;;;;;;;;;;0.57;81.85;100373.28;5041915;28;19916;-66
2022/02/14 00:17:10;;;;;;;;;;;;;;;0.59;81.96;100379.28;5093296;28;19938;-64
2022/02/14 00:19:36;;;;;;;;;;;;;;;0.61;81.89;100369.53;5093203;28;20010;-66
2022/02/14 00:22:01;;;;;;;;;;;;;;;0.66;81.59;100363.13;5096838;28;20371;-64
2022/02/14 00:24:26;;;;;;;;;;;;;;;0.68;81.67;100363.84;5098508;28;20440;-65
2022/02/14 00:26:53;;;;;;;;;;;;;;;0.71;81.63;100369.72;5079631;28;19923;-63
2022/02/14 00:29:19;;;;;;;;;;;;;;;0.74;81.50;100364.25;5079433;28;19916;-63
2022/02/14 00:31:44;;;;;;;;;;;;;;;0.73;81.41;100370.44;5080020;28;20298;-65
2022/02/14 00:34:10;;;;;;;;;;;;;;;0.77;81.39;100378.91;5097430;28;19916;-65
2022/02/14 00:36:35;;;;;;;;;;;;;;;0.79;80.98;100385.72;5097793;28;20366;-65
2022/02/14 00:39:00;;;;;;;;;;;;;;;0.81;80.74;100385.59;5098128;28;19923;-63
2022/02/14 00:41:27;;;;;;;;;;;;;;;0.80;81.11;100381.31;5097914;28;19923;-64
2022/02/14 00:43:53;;;;;;;;;;;;;;;0.83;81.12;100391.56;5098898;28;20302;-62
2022/02/14 00:46:18;;;;;;;;;;;;;;;0.83;81.27;100386.34;5097930;28;19923;-64
2022/02/14 00:48:45;;;;;;;;;;;;;;;0.83;80.69;100381.94;5097923;28;19923;-64
2022/02/14 00:51:10;;;;;;;;;;;;;;;0.87;80.83;100386.03;5097341;28;19985;-65
2022/02/14 00:53:36;;;;;;;;;;;;;;;0.89;80.87;100386.75;5097579;28;20387;-64
2022/02/14 00:56:01;;;;;;;;;;;;;;;0.93;80.58;100385.59;5079021;28;19916;-65
2022/02/14 00:58:26;;;;;;;;;;;;;;;0.94;80.55;100389.03;5096366;28;19923;-65
2022/02/14 01:00:53;;;;;;;;;;;;;;;0.97;80.98;100385.34;5096635;28;19945;-66
2022/02/14 01:03:18;;;;;;;;;;;;;;;0.98;80.07;100387.03;5097359;28;19916;-64
2022/02/14 01:05:44;;;;;;;;;;;;;;;1.00;80.56;100388.59;5080416;28;20375;-64
2022/02/14 01:08:09;;;;;;;;;;;;;;;0.99;80.34;100389.53;5098722;28;19916;-65
2022/02/14 01:10:34;;;;;;;;;;;;;;;1.03;80.52;100384.91;5098577;28;19915;-65
2022/02/14 01:13:00;;;;;;;;;;;;;;;0.99;80.79;100386.91;5098571;28;19915;-64
2022/02/14 01:15:25;;;;;;;;;;;;;;;0.99;80.47;100400.03;5097894;28;20347;-64
2022/02/14 01:17:50;;;;;;;;;;;;;;;1.00;81.45;100390.38;5096759;28;19916;-64
2022/02/14 01:20:16;;;;;;;;;;;;;;;1.04;80.48;100400.53;5078955;28;20417;-64
2022/02/14 01:22:41;;;;;;;;;;;;;;;1.03;80.19;100396.22;5097107;28;20010;-63
2022/02/14 01:25:07;;;;;;;;;;;;;;;1.06;81.19;100395.19;5097032;28;19957;-63
2022/02/14 01:27:33;;;;;;;;;;;;;;;1.08;80.86;100390.66;5096444;28;20386;-66
2022/02/14 01:29:58;;;;;;;;;;;;;;;1.09;81.09;100387.09;5096265;28;19916;-65
2022/02/14 01:32:24;;;;;;;;;;;;;;;1.11;80.94;100390.44;5095409;28;20030;-63
2022/02/14 01:34:50;;;;;;;;;;;;;;;1.14;80.96;100388.41;5096429;28;19915;-65
2022/02/14 01:37:15;;;;;;;;;;;;;;;1.15;81.10;100376.13;5096354;28;20010;-64
2022/02/14 01:39:41;;;;;;;;;;;;;;;1.15;81.05;100381.38;5096923;28;20403;-65
2022/02/14 01:42:26;;;;;;;;;;;;;;;1.12;81.09;100365.88;5097152;28;19927;-64
2022/02/14 01:44:55;;;;;;;;;;;;;;;1.11;81.09;100366.81;5096354;28;19920;-64
2022/02/14 01:47:22;;;;;;;;;;;;;;;1.08;81.07;100362.66;5096821;28;19916;-65
2022/02/14 01:49:48;;;;;;;;;;;;;;;1.09;80.97;100366.94;5097382;28;20378;-64
2022/02/14 01:52:14;;;;;;;;;;;;;;;1.09;81.64;100369.56;5078479;28;19965;-63
2022/02/14 01:54:44;;;;;;;;;;;;;;;1.10;81.78;100373.03;5096239;28;20307;-64
2022/02/14 01:57:10;;;;;;;;;;;;;;;1.10;81.95;100357.28;5096529;28;20457;-64
2022/02/14 01:59:36;;;;;;;;;;;;;;;1.07;82.24;100370.63;5096741;28;20420;-64
2022/02/14 02:02:02;;;;;;;;;;;;;;;1.12;82.44;100377.19;5095116;28;19923;-62
2022/02/14 02:04:28;;;;;;;;;;;;;;;1.12;81.93;100361.47;5096921;28;19927;-65
2022/02/14 02:06:53;;;;;;;;;;;;;;;1.15;81.80;100374.34;5095459;28;19920;-63
2022/02/14 02:09:18;;;;;;;;;;;;;;;1.20;81.50;100374.03;5095219;28;19954;-65
2022/02/14 02:14:28;;;;;;;;;;;;;;;1.18;80.99;100365.47;5094654;28;19919;-62
2022/02/14 02:16:53;;;;;;;;;;;;;;;1.21;81.27;100367.84;5094666;28;19923;-64
2022/02/14 02:19:19;;;;;;;;;;;;;;;1.25;81.11;100369.28;5094426;28;20023;-65
2022/02/14 02:21:45;;;;;;;;;;;;;;;1.27;81.09;100364.78;5094360;28;19976;-65
2022/02/14 02:24:14;;;;;;;;;;;;;;;1.26;80.82;100372.75;5094157;28;19922;-64
2022/02/14 02:26:40;;;;;;;;;;;;;;;1.27;80.04;100371.81;5094184;28;19939;-65
2022/02/14 02:29:05;;;;;;;;;;;;;;;1.27;79.94;100377.06;5093891;28;20391;-64
2022/02/14 02:31:30;;;;;;;;;;;;;;;1.28;79.94;100366.44;5094187;28;19916;-64
2022/02/14 02:33:56;;;;;;;;;;;;;;;1.29;79.57;100373.34;5092876;28;20496;-64
2022/02/14 02:36:21;;;;;;;;;;;;;;;1.30;79.73;100369.78;5094193;28;19916;-64
2022/02/14 02:38:46;;;;;;;;;;;;;;;1.27;79.92;100377.06;5093801;28;19916;-65
2022/02/14 02:41:12;;;;;;;;;;;;;;;1.25;80.06;100369.28;5075769;28;20321;-66
2022/02/14 02:43:37;;;;;;;;;;;;;;;1.22;79.75;100366.91;5074429;28;20272;-65
2022/02/14 02:46:03;;;;;;;;;;;;;;;1.22;80.02;100365.13;5072761;28;19921;-63
2022/02/14 02:48:28;;;;;;;;;;;;;;;1.26;80.03;100359.63;5053863;28;20299;-64
2022/02/14 02:51:02;;;;;;;;;;;;;;;1.27;80.40;100363.94;5073389;28;19916;-66
2022/02/14 02:53:29;;;;;;;;;;;;;;;1.22;79.70;100364.28;5053523;28;20470;-65
2022/02/14 02:55:56;;;;;;;;;;;;;;;1.20;80.22;100360.94;5073033;28;19920;-63
2022/02/14 02:58:22;;;;;;;;;;;;;;;1.20;80.11;100353.91;5073522;28;19970;-65
2022/02/14 03:00:47;;;;;;;;;;;;;;;1.20;80.31;100366.19;5073566;28;19920;-64
2022/02/14 03:03:13;;;;;;;;;;;;;;;1.20;80.31;100360.94;5073296;28;20410;-64
2022/02/14 03:05:38;;;;;;;;;;;;;;;1.15;80.39;100360.41;5073091;28;19927;-64
2022/02/14 03:08:03;;;;;;;;;;;;;;;1.17;80.42;100355.91;5073211;28;20310;-63
2022/02/14 03:10:29;;;;;;;;;;;;;;;1.22;80.27;100354.63;5073076;28;19916;-63
2022/02/14 03:12:54;;;;;;;;;;;;;;;1.21;80.22;100355.56;5073322;28;19922;-64
2022/02/14 03:15:20;;;;;;;;;;;;;;;1.20;80.11;100363.56;5073225;28;19959;-62
2022/02/14 03:17:45;;;;;;;;;;;;;;;1.16;80.73;100369.97;5072950;28;19920;-64
2022/02/14 03:20:11;;;;;;;;;;;;;;;1.18;80.43;100371.53;5051815;28;20414;-65
2022/02/14 03:22:39;;;;;;;;;;;;;;;1.17;80.39;100376.91;5076001;28;20256;-64
2022/02/14 03:25:04;;;;;;;;;;;;;;;1.20;81.10;100384.53;5072818;28;20002;-65
2022/02/14 03:27:30;;;;;;;;;;;;;;;1.21;80.13;100387.03;5072925;28;19962;-65
2022/02/14 03:29:55;;;;;;;;;;;;;;;1.25;80.78;100385.03;5072972;28;19915;-65
2022/02/14 03:32:20;;;;;;;;;;;;;;;1.28;80.56;100384.81;5072702;28;20347;-63
2022/02/14 03:34:46;;;;;;;;;;;;;;;1.27;80.69;100377.88;5072635;28;19916;-65
2022/02/14 03:37:11;;;;;;;;;;;;;;;1.30;79.98;100367.16;5072425;28;19917;-65
2022/02/14 03:39:36;;;;;;;;;;;;;;;1.31;80.70;100374.09;5072277;28;19970;-63
2022/02/14 03:42:04;;;;;;;;;;;;;;;1.31;80.43;100381.94;5072314;28;19963;-66
2022/02/14 03:44:29;;;;;;;;;;;;;;;1.30;80.51;100388.16;5072769;28;19946;-63
2022/02/14 03:46:55;;;;;;;;;;;;;;;1.29;80.86;100386.47;5072543;28;20409;-64
2022/02/14 03:49:20;;;;;;;;;;;;;;;1.23;80.68;100376.44;5072585;28;19916;-65
2022/02/14 03:51:45;;;;;;;;;;;;;;;1.27;80.95;100380.50;5051663;28;19939;-65
2022/02/14 03:54:11;;;;;;;;;;;;;;;1.31;80.70;100383.75;5067755;28;20005;-66
2022/02/14 03:56:39;;;;;;;;;;;;;;;1.26;80.37;100378.84;5072158;28;19931;-66
2022/02/14 03:59:04;;;;;;;;;;;;;;;1.23;80.77;100376.44;5072395;28;19917;-66
2022/02/14 04:01:29;;;;;;;;;;;;;;;1.26;80.61;100378.84;5072188;28;20317;-63
2022/02/14 04:03:55;;;;;;;;;;;;;;;1.26;80.88;100375.38;5072111;28;20018;-62
2022/02/14 04:06:26;;;;;;;;;;;;;;;1.27;80.74;100380.50;5050729;28;19923;-61
2022/02/14 04:08:51;;;;;;;;;;;;;;;1.25;80.72;100379.78;5033369;28;19936;-62
2022/02/14 04:11:16;;;;;;;;;;;;;;;1.21;80.66;100383.59;5068352;28;19920;-65
2022/02/14 04:13:42;;;;;;;;;;;;;;;1.22;80.77;100374.78;5072279;28;20393;-64
2022/02/14 04:16:07;;;;;;;;;;;;;;;1.19;80.98;100381.06;5072378;28;20393;-63
2022/02/14 04:18:33;;;;;;;;;;;;;;;1.19;81.11;100372.38;5072027;28;19920;-64
2022/02/14 04:20:59;;;;;;;;;;;;;;;1.21;81.08;100380.97;5072184;28;19920;-61
2022/02/14 04:23:24;;;;;;;;;;;;;;;1.23;80.63;100382.53;5072001;28;19938;-65
2022/02/14 04:25:50;;;;;;;;;;;;;;;1.27;80.94;100388.38;5072190;28;19916;-65
2022/02/14 04:28:16;;;;;;;;;;;;;;;1.25;80.88;100390.28;5072304;28;20280;-61
2022/02/14 04:30:41;;;;;;;;;;;;;;;1.21;80.57;100383.59;5071885;28;19916;-63
2022/02/14 04:33:06;;;;;;;;;;;;;;;1.18;80.74;100389.91;5050557;28;20002;-65
2022/02/14 04:35:32;;;;;;;;;;;;;;;1.14;81.10;100393.66;5070673;28;19916;-63
2022/02/14 04:38:01;;;;;;;;;;;;;;;1.17;81.28;100393.47;5050630;28;20395;-62
2022/02/14 04:40:28;;;;;;;;;;;;;;;1.20;80.83;100400.28;5069710;28;20355;-63
2022/02/14 04:42:55;;;;;;;;;;;;;;;1.21;80.70;100407.19;5072125;28;20014;-62
2022/02/14 04:45:21;;;;;;;;;;;;;;;1.25;80.78;100392.91;5072467;28;19928;-61
2022/02/14 04:47:47;;;;;;;;;;;;;;;1.27;80.46;100398.88;5050655;28;19982;-61
2022/02/14 04:50:12;;;;;;;;;;;;;;;1.36;80.45;100394.72;5067588;28;20363;-63
2022/02/14 04:52:38;;;;;;;;;;;;;;;1.35;79.76;100393.91;5071897;28;19920;-63
2022/02/14 04:55:04;;;;;;;;;;;;;;;1.37;80.06;100389.38;5050555;28;19917;-64
2022/02/14 04:57:29;;;;;;;;;;;;;;;1.40;79.64;100390.94;5070009;28;19920;-62
2022/02/14 04:59:56;;;;;;;;;;;;;;;1.42;79.32;100397.72;5071997;28;19917;-61
2022/02/14 05:02:21;;;;;;;;;;;;;;;1.37;79.22;100389.38;5072560;28;20019;-63
2022/02/14 05:04:46;;;;;;;;;;;;;;;1.38;79.64;100391.03;5071580;28;19928;-63
2022/02/14 05:07:12;;;;;;;;;;;;;;;1.44;79.41;100397.63;5071014;28;19927;-65
2022/02/14 05:09:37;;;;;;;;;;;;;;;1.42;79.21;100397.72;5073313;28;19916;-65
2022/02/14 05:12:03;;;;;;;;;;;;;;;1.42;79.26;100392.47;5075000;28;19916;-64
2022/02/14 05:14:29;;;;;;;;;;;;;;;1.40;78.91;100393.56;5075178;28;20387;-64
2022/02/14 05:16:54;;;;;;;;;;;;;;;1.40;78.93;100393.56;5075352;28;20367;-64
2022/02/14 05:19:20;;;;;;;;;;;;;;;1.35;78.98;100388.66;5054196;28;19916;-68
2022/02/14 05:21:45;;;;;;;;;;;;;;;1.35;79.24;100388.66;5054050;28;19916;-68
2022/02/14 05:24:11;;;;;;;;;;;;;;;1.33;79.13;100387.91;5054194;28;19917;-66
2022/02/14 05:26:36;;;;;;;;;;;;;;;1.34;78.59;100394.84;5074088;28;19955;-66
2022/02/14 05:29:02;;;;;;;;;;;;;;;1.32;78.96;100396.75;5075182;28;20346;-68
2022/02/14 05:31:29;;;;;;;;;;;;;;;1.35;79.14;100395.69;5074847;28;19926;-68
2022/02/14 05:33:54;;;;;;;;;;;;;;;1.33;79.16;100400.19;5075036;28;19917;-66
2022/02/14 05:36:20;;;;;;;;;;;;;;;1.36;79.52;100403.44;5074764;28;19923;-66
2022/02/14 05:38:45;;;;;;;;;;;;;;;1.38;78.92;100401.53;5075303;28;20014;-66
2022/02/14 05:41:11;;;;;;;;;;;;;;;1.36;78.85;100402.59;5053952;28;19970;-64
2022/02/14 05:43:37;;;;;;;;;;;;;;;1.31;78.80;100397.69;5073944;28;19920;-65
2022/02/14 05:46:03;;;;;;;;;;;;;;;1.30;78.80;100398.66;5074748;28;20365;-66
2022/02/14 05:48:28;;;;;;;;;;;;;;;1.33;78.76;100398.41;5074614;28;20022;-65
2022/02/14 05:50:53;;;;;;;;;;;;;;;1.30;79.07;100418.78;5053115;28;19923;-67
2022/02/14 05:53:19;;;;;;;;;;;;;;;1.28;78.89;100411.03;5071093;28;20065;-69
2022/02/14 05:55:44;;;;;;;;;;;;;;;1.26;79.21;100410.31;5056511;28;19917;-69
2022/02/14 05:58:10;;;;;;;;;;;;;;;1.27;78.88;100414.63;5056788;28;19920;-69
2022/02/14 06:00:35;;;;;;;;;;;;;;;1.26;78.92;100406.84;5056516;28;19924;-71
2022/02/14 06:03:01;;;;;;;;;;;;;;;1.24;79.06;100414.84;5074576;28;19922;-70
2022/02/14 06:05:26;;;;;;;;;;;;;;;1.24;79.11;100414.84;5054094;28;19921;-66
2022/02/14 06:07:51;;;;;;;;;;;;;;;1.25;79.06;100421.75;5074595;28;19916;-68
2022/02/14 06:10:17;;;;;;;;;;;;;;;1.30;78.93;100424.88;5074476;28;19978;-71
2022/02/14 06:12:42;;;;;;;;;;;;;;;1.26;79.03;100427.84;5056441;28;19923;-72
2022/02/14 06:15:08;;;;;;;;;;;;;;;1.22;79.20;100427.22;5074334;28;19921;-69
2022/02/14 06:17:34;;;;;;;;;;;;;;;1.21;79.77;100430.81;5074371;28;19960;-67
2022/02/14 06:20:00;;;;;;;;;;;;;;;1.26;79.50;100420.81;5073822;28;19916;-70
2022/02/14 06:22:25;;;;;;;;;;;;;;;1.27;79.65;100429.50;5074251;28;19917;-75
2022/02/14 06:24:51;;;;;;;;;;;;;;;1.25;79.60;100427.00;5074417;28;20306;-71
2022/02/14 06:27:16;;;;;;;;;;;;;;;1.30;79.62;100435.38;5074003;28;20006;-71
2022/02/14 06:29:42;;;;;;;;;;;;;;;1.29;79.41;100425.84;5074149;28;19923;-66
2022/02/14 06:32:07;;;;;;;;;;;;;;;1.31;79.54;100438.84;5074245;28;19920;-68
2022/02/14 06:34:32;;;;;;;;;;;;;;;1.34;79.01;100436.81;5073795;28;19916;-67
2022/02/14 06:36:58;;;;;;;;;;;;;;;1.33;79.32;100434.31;5073493;28;20329;-66
2022/02/14 06:39:23;;;;;;;;;;;;;;;1.30;79.25;100430.13;5073803;28;19942;-66
2022/02/14 06:41:49;;;;;;;;;;;;;;;1.27;79.70;100434.75;5073938;28;20321;-68
2022/02/14 06:44:18;;;;;;;;;;;;;;;1.23;79.70;100440.22;5073825;28;19927;-68
2022/02/14 06:46:43;;;;;;;;;;;;;;;1.26;79.72;100433.09;5073413;28;19924;-68
2022/02/14 06:49:08;;;;;;;;;;;;;;;1.31;79.90;100447.53;5073442;28;20407;-65
2022/02/14 06:51:35;;;;;;;;;;;;;;;1.32;79.70;100437.88;5073266;28;20429;-65
2022/02/14 06:54:01;;;;;;;;;;;;;;;1.29;79.99;100443.34;5052307;28;20038;-65
2022/02/14 06:56:26;;;;;;;;;;;;;;;1.34;80.23;100449.94;5070931;28;20394;-66
2022/02/14 06:58:51;;;;;;;;;;;;;;;1.32;80.14;100448.38;5073354;28;19951;-67
2022/02/14 07:01:17;;;;;;;;;;;;;;;1.36;80.06;100444.56;5070294;28;19951;-71
2022/02/14 07:03:42;;;;;;;;;;;;;;;1.38;80.06;100445.31;5055878;28;19926;-74
2022/02/14 07:06:08;;;;;;;;;;;;;;;1.42;79.94;100431.84;5039646;28;19921;-73
2022/02/14 07:08:33;;;;;;;;;;;;;;;1.43;80.19;100441.38;5057078;28;19920;-71
2022/02/14 07:10:59;;;;;;;;;;;;;;;1.49;79.41;100440.97;5063591;28;19939;-67
2022/02/14 07:13:24;;;;;;;;;;;;;;;1.51;79.80;100433.81;5063779;28;19916;-66
2022/02/14 07:15:50;;;;;;;;;;;;;;;1.43;79.68;100423.03;5052947;28;19916;-64
2022/02/14 07:18:15;;;;;;;;;;;;;;;1.56;80.00;100441.34;5052902;28;19924;-68
2022/02/14 07:20:41;;;;;;;;;;;;;;;1.54;79.61;100428.34;5053106;28;19917;-69
2022/02/14 07:23:07;;;;;;;;;;;;;;;1.51;79.58;100425.94;5053114;28;19978;-64
2022/02/14 07:25:32;;;;;;;;;;;;;;;1.57;79.73;100431.69;5052668;28;19916;-69
2022/02/14 07:27:58;;;;;;;;;;;;;;;1.57;79.57;100434.31;5053500;28;19929;-70
2022/02/14 07:30:26;;;;;;;;;;;;;;;1.58;79.48;100428.94;5052865;28;19959;-72
2022/02/14 07:32:52;;;;;;;;;;;;;;;1.65;79.09;100434.56;5017623;28;19917;-68
2022/02/14 07:35:18;;;;;;;;;;;;;;;1.63;79.30;100420.72;5049318;28;19924;-65
2022/02/14 07:37:44;;;;;;;;;;;;;;;1.62;79.17;100430.38;5052924;28;19959;-68
2022/02/14 07:40:10;;;;;;;;;;;;;;;1.62;78.50;100424.31;5015332;28;19917;-65
2022/02/14 07:42:37;;;;;;;;;;;;;;;1.57;78.28;100432.53;5042119;28;20015;-68
2022/02/14 07:45:04;;;;;;;;;;;;;;;1.55;79.29;100423.94;5052649;28;20414;-65
2022/02/14 07:47:29;;;;;;;;;;;;;;;1.55;78.85;100424.75;5049506;28;20292;-70
2022/02/14 07:49:55;;;;;;;;;;;;;;;1.67;78.57;100427.41;5053073;28;19916;-71
2022/02/14 07:52:21;;;;;;;;;;;;;;;1.69;78.54;100430.75;5032421;28;19997;-68
2022/02/14 07:54:46;;;;;;;;;;;;;;;1.69;78.43;100431.59;5053432;28;19986;-63
2022/02/14 07:57:14;;;;;;;;;;;;;;;1.70;77.96;100427.19;5048107;28;20379;-68
2022/02/14 07:59:40;;;;;;;;;;;;;;;1.72;77.69;100443.66;5050384;28;20337;-67
2022/02/14 08:02:07;;;;;;;;;;;;;;;1.57;77.98;100429.91;5028383;28;19923;-62
2022/02/14 08:04:32;;;;;;;;;;;;;;;1.55;78.58;100434.41;5033849;28;19923;-67
2022/02/14 08:06:57;;;;;;;;;;;;;;;1.56;78.49;100436.09;5052516;28;19924;-70
2022/02/14 08:09:23;;;;;;;;;;;;;;;1.54;79.13;100433.59;5058882;28;19916;-73
2022/02/14 08:11:48;;;;;;;;;;;;;;;1.57;78.82;100437.78;5066222;28;20332;-66
2022/02/14 08:14:14;;;;;;;;;;;;;;;1.59;78.64;100440.28;5054029;28;20280;-66
2022/02/14 08:16:40;;;;;;;;;;;;;;;1.54;78.29;100424.88;5044374;28;20291;-67
2022/02/14 08:19:05;;;;;;;;;;;;;;;1.57;78.71;100431.69;5053466;28;19917;-69
2022/02/14 08:21:31;;;;;;;;;;;;;;;1.65;78.53;100431.94;5049569;28;19917;-67
2022/02/14 08:23:58;;;;;;;;;;;;;;;1.63;77.98;100426.81;5028642;28;19928;-69
2022/02/14 08:26:23;;;;;;;;;;;;;;;1.65;78.23;100424.91;5054330;28;20007;-65
2022/02/14 08:28:48;;;;;;;;;;;;;;;1.66;77.43;100421.34;5055562;28;20240;-70
2022/02/14 08:31:14;;;;;;;;;;;;;;;1.72;78.27;100415.63;5055003;28;19916;-69
2022/02/14 08:33:39;;;;;;;;;;;;;;;1.76;77.80;100421.50;5052275;28;20283;-68
2022/02/14 08:36:08;;;;;;;;;;;;;;;1.78;77.19;100422.22;5056615;28;19916;-71
2022/02/14 08:38:37;;;;;;;;;;;;;;;1.76;76.89;100417.09;5056981;28;19917;-71
2022/02/14 08:41:04;;;;;;;;;;;;;;;1.79;77.02;100418.66;5054595;28;19916;-70
2022/02/14 08:43:30;;;;;;;;;;;;;;;1.73;77.52;100427.78;5073736;28;19920;-71
2022/02/14 08:45:55;;;;;;;;;;;;;;;1.76;77.36;100429.38;5077929;28;19927;-69
2022/02/14 08:48:20;;;;;;;;;;;;;;;1.74;77.97;100428.66;5078651;28;19916;-69
2022/02/14 08:50:46;;;;;;;;;;;;;;;1.77;78.09;100433.69;5078605;28;19916;-72
2022/02/14 08:53:17;;;;;;;;;;;;;;;1.67;78.04;100432.66;5078675;28;20334;-71
2022/02/14 08:55:43;;;;;;;;;;;;;;;1.54;79.05;100432.75;5079027;28;20299;-72
2022/02/14 08:58:08;;;;;;;;;;;;;;;1.53;79.11;100428.44;5061588;28;19920;-62
2022/02/14 09:00:34;;;;;;;;;;;;;;;1.51;79.54;100428.56;5079983;28;19923;-67
2022/02/14 09:03:00;;;;;;;;;;;;;;;1.43;80.12;100423.03;5079330;28;19916;-65
2022/02/14 09:05:26;;;;;;;;;;;;;;;1.44;80.43;100431.72;5044119;28;20407;-65
2022/02/14 09:07:52;;;;;;;;;;;;;;;1.38;80.39;100433.03;5078358;28;19916;-64
2022/02/14 09:10:17;;;;;;;;;;;;;;;1.37;80.44;100431.34;5076585;28;19923;-63
2022/02/14 09:12:43;;;;;;;;;;;;;;;1.33;80.91;100439.56;5059614;28;20016;-62
2022/02/14 09:15:08;;;;;;;;;;;;;;;1.20;81.50;100440.47;5076042;28;20349;-62
2022/02/14 09:17:34;;;;;;;;;;;;;;;1.16;81.71;100444.25;5076125;28;19922;-63
2022/02/14 09:20:00;;;;;;;;;;;;;;;1.13;82.28;100441.81;5075930;28;20004;-63
2022/02/14 09:22:25;;;;;;;;;;;;;;;1.13;82.32;100440.97;5057517;28;20339;-62
2022/02/14 09:24:51;;;;;;;;;;;;;;;1.16;82.47;100438.16;5075375;28;19916;-63
2022/02/14 09:27:16;;;;;;;;;;;;;;;1.15;82.87;100441.72;5075388;28;19923;-62
2022/02/14 09:29:41;;;;;;;;;;;;;;;1.23;82.29;100442.84;5075059;28;19939;-63
2022/02/14 09:32:07;;;;;;;;;;;;;;;1.28;82.29;100447.75;5074866;28;20015;-64
2022/02/14 09:34:32;;;;;;;;;;;;;;;1.26;82.21;100441.78;5075267;28;20295;-69
2022/02/14 09:36:58;;;;;;;;;;;;;;;1.20;82.54;100442.25;5074862;28;20337;-64
2022/02/14 09:39:29;;;;;;;;;;;;;;;1.12;82.92;100441.94;5056830;28;20361;-66
2022/02/14 09:42:00;;;;;;;;;;;;;;;1.11;83.36;100445.50;5074783;28;19920;-63
2022/02/14 09:44:28;;;;;;;;;;;;;;;1.05;83.01;100438.09;5074739;28;20019;-66
2022/02/14 09:46:54;;;;;;;;;;;;;;;1.09;83.07;100450.03;5074737;28;19921;-66
2022/02/14 09:49:20;;;;;;;;;;;;;;;1.07;83.22;100459.78;5074805;28;20010;-59
2022/02/14 09:51:46;;;;;;;;;;;;;;;0.99;83.40;100452.47;5074539;28;20370;-69
2022/02/14 09:54:11;;;;;;;;;;;;;;;0.96;83.59;100457.94;5073770;28;19943;-63
2022/02/14 09:56:36;;;;;;;;;;;;;;;0.98;84.22;100457.81;5074305;28;20027;-60
2022/02/14 09:59:05;;;;;;;;;;;;;;;0.95;84.18;100463.28;5074078;28;19916;-60
2022/02/14 10:01:31;;;;;;;;;;;;;;;0.93;84.76;100461.63;5074321;28;20027;-62
2022/02/14 10:03:57;;;;;;;;;;;;;;;0.93;84.47;100455.53;5074532;28;19963;-66
2022/02/14 10:06:27;;;;;;;;;;;;;;;0.98;84.51;100457.81;5073918;28;19916;-61
2022/02/14 10:09:13;;;;;;;;;;;;;;;0.96;84.18;100452.69;5074155;28;20349;-65
2022/02/14 10:11:54;;;;;;;;;;;;;;;1.00;84.09;100455.94;5078186;28;19955;-66
2022/02/14 10:14:20;;;;;;;;;;;;;;;1.04;84.22;100454.75;5085541;28;19926;-65
2022/02/14 10:17:03;;;;;;;;;;;;;;;1.05;84.05;100452.03;5094171;28;20395;-65
2022/02/14 10:19:29;;;;;;;;;;;;;;;1.09;84.26;100452.66;5094400;28;19927;-70
2022/02/14 10:21:55;;;;;;;;;;;;;;;1.16;83.93;100443.41;5094649;28;20011;-67
2022/02/14 10:24:20;;;;;;;;;;;;;;;1.21;83.88;100446.53;5094695;28;20004;-69
2022/02/14 10:26:47;;;;;;;;;;;;;;;1.18;83.26;100444.16;5076455;28;19916;-67
2022/02/14 10:29:13;;;;;;;;;;;;;;;1.22;83.72;100435.94;5093914;28;19934;-68
2022/02/14 10:31:39;;;;;;;;;;;;;;;1.21;83.29;100426.41;5093648;28;19924;-68
2022/02/14 10:34:04;;;;;;;;;;;;;;;1.19;83.31;100433.53;5093266;28;20022;-68
2022/02/14 10:36:30;;;;;;;;;;;;;;;1.20;84.10;100429.13;5075554;28;19916;-72
2022/02/14 10:38:57;;;;;;;;;;;;;;;1.12;83.68;100420.94;5094958;28;19916;-64
2022/02/14 10:41:24;;;;;;;;;;;;;;;1.07;83.83;100413.41;5093380;28;19970;-71
2022/02/14 10:43:50;;;;;;;;;;;;;;;1.11;84.61;100414.88;5074061;28;19969;-68
2022/02/14 10:46:19;;;;;;;;;;;;;;;1.24;83.92;100404.34;5073672;28;20285;-69
2022/02/14 10:48:45;;;;;;;;;;;;;;;1.28;83.91;100399.72;5046978;28;19916;-70
2022/02/14 10:51:19;;;;;;;;;;;;;;;1.26;83.60;100404.22;5055442;28;19923;-69
2022/02/14 10:53:47;;;;;;;;;;;;;;;1.20;83.39;100392.41;5073632;28;19952;-71
2022/02/14 10:56:14;;;;;;;;;;;;;;;1.17;83.84;100382.13;5073451;28;20008;-67
2022/02/14 10:58:41;;;;;;;;;;;;;;;1.25;83.89;100379.78;5054939;28;19931;-70
2022/02/14 11:01:12;;;;;;;;;;;;;;;1.22;83.47;100365.13;5052166;28;19964;-68
2022/02/14 11:03:39;;;;;;;;;;;;;;;1.29;83.64;100349.75;5054355;28;19930;-70
2022/02/14 11:06:05;;;;;;;;;;;;;;;1.30;83.07;100361.91;5072246;28;20003;-67
2022/02/14 11:08:33;;;;;;;;;;;;;;;1.22;83.35;100374.78;5072119;28;20006;-69
2022/02/14 11:11:01;;;;;;;;;;;;;;;1.19;83.41;100365.34;5072640;28;20009;-64
2022/02/14 11:13:28;;;;;;;;;;;;;;;1.22;83.36;100365.13;5052364;28;20299;-70
2022/02/14 11:15:54;;;;;;;;;;;;;;;1.24;82.69;100378.13;5072099;28;20417;-64
2022/02/14 11:18:21;;;;;;;;;;;;;;;1.30;83.09;100393.41;5052098;28;19916;-66
2022/02/14 11:20:49;;;;;;;;;;;;;;;1.15;83.14;100405.81;5072676;28;19916;-66
2022/02/14 11:23:16;;;;;;;;;;;;;;;1.06;83.14;100416.16;5072605;28;19916;-68
2022/02/14 11:25:45;;;;;;;;;;;;;;;1.06;83.19;100421.41;5072825;28;19916;-70
2022/02/14 11:28:15;;;;;;;;;;;;;;;1.08;83.49;100416.88;5050651;28;20006;-66
2022/02/14 11:30:41;;;;;;;;;;;;;;;1.01;83.53;100421.72;5054797;28;19916;-63
2022/02/14 11:33:13;;;;;;;;;;;;;;;1.04;83.49;100428.53;5073496;28;19923;-70
2022/02/14 11:35:58;;;;;;;;;;;;;;;1.03;83.42;100421.63;5073601;28;19943;-70
2022/02/14 11:38:38;;;;;;;;;;;;;;;1.00;83.65;100433.16;5073431;28;19969;-65
2022/02/14 11:41:24;;;;;;;;;;;;;;;0.96;84.00;100420.41;5073435;28;19916;-66
2022/02/14 11:43:50;;;;;;;;;;;;;;;0.96;83.99;100423.84;5088004;28;19920;-70
2022/02/14 11:46:18;;;;;;;;;;;;;;;1.03;84.12;100414.59;5061047;28;20405;-67
2022/02/14 11:48:44;;;;;;;;;;;;;;;1.09;84.34;100418.56;5093786;28;20408;-67
2022/02/14 11:51:14;;;;;;;;;;;;;;;1.15;83.81;100420.72;5094965;28;20056;-68
2022/02/14 11:53:44;;;;;;;;;;;;;;;1.12;83.54;100421.78;5093455;28;19927;-67
2022/02/14 11:56:22;;;;;;;;;;;;;;;1.07;83.88;100423.91;5058842;28;19922;-67
2022/02/14 11:59:03;;;;;;;;;;;;;;;1.06;84.24;100419.63;5095012;28;19916;-67
2022/02/14 12:01:48;;;;;;;;;;;;;;;0.97;84.47;100417.66;5092386;28;19927;-65
2022/02/14 12:04:42;;;;;;;;;;;;;;;1.00;85.13;100422.69;5092922;28;20322;-65
2022/02/14 12:07:20;;;;;;;;;;;;;;;1.01;84.71;100415.66;5074307;28;19977;-68
2022/02/14 12:09:57;;;;;;;;;;;;;;;0.97;84.51;100422.06;5091154;28;19971;-67
2022/02/14 12:12:41;;;;;;;;;;;;;;;0.98;84.60;100419.34;5094490;28;20042;-66
2022/02/14 12:20:47;;;;;;;;;;;;;;;1.08;84.78;100414.25;5098262;28;20345;-69
2022/02/14 12:23:13;;;;;;;;;;;;;;;0.98;84.34;100418.50;5080374;28;19931;-66
2022/02/14 12:25:48;;;;;;;;;;;;;;;0.90;84.67;100411.19;5096090;28;20019;-67
2022/02/14 12:28:13;;;;;;;;;;;;;;;0.96;84.89;100412.53;5093001;28;19948;-66
2022/02/14 12:30:43;;;;;;;;;;;;;;;1.00;84.41;100417.44;5092580;28;19920;-66
2022/02/14 12:33:09;;;;;;;;;;;;;;;1.01;84.56;100436.63;5074296;28;20410;-67
2022/02/14 12:35:40;;;;;;;;;;;;;;;0.99;84.59;100430.66;5096804;28;19939;-66
2022/02/14 12:38:06;;;;;;;;;;;;;;;0.98;85.18;100439.47;5095687;28;19916;-66
2022/02/14 12:40:51;;;;;;;;;;;;;;;0.93;84.90;100417.03;5095561;28;19923;-67
2022/02/14 12:43:25;;;;;;;;;;;;;;;0.97;85.38;100424.69;5094797;28;19920;-68
2022/02/14 12:45:52;;;;;;;;;;;;;;;1.01;85.13;100434.00;5076330;28;19920;-68
2022/02/14 12:48:37;;;;;;;;;;;;;;;1.06;85.26;100424.84;5094138;28;19916;-66
2022/02/14 12:51:20;;;;;;;;;;;;;;;1.15;84.53;100432.06;5074253;28;19916;-65
2022/02/14 12:53:50;;;;;;;;;;;;;;;1.17;84.61;100434.59;5093382;28;19916;-67